Tiempo atmosférico en la estación meteorológica de El Paso, Santa Cruz de Tenerife (844 m.)

Fecha
DESCASC
Temp. máxima en grados centígrados (hora)
DESCASC
Temp. mínima en grados centígrados (hora)
DESCASC
Temp. media en grados centígrados
DESCASC
Racha de viento máxima en m/sg (hora)
DESCASC
Velocidad máxima media en intervalos de 10 minutos(hora)
DESCASC
Precipitaciones diarias en mm
DESCASC
Precipitaciones de 00:00 a 06:00 en mm
DESCASC
Precipitaciones de 06:00 a 12:00 en mm
DESCASC
Precipitaciones de 12:00 a 18:00 en mm
DESCASC
Precipitaciones de 18:00 a 24:00 en mm
DESCASC
14-12-2017 14.8 (15:00) 10.7 (08:20) 12.8 19.44 (02:00) 9.17 (11:10) 0 0 0 0 0
13-12-2017 13.2 (13:50) 9.8 (07:10) 11.5 25 (09:50) 12.22 (09:30) 7.8 1 6.2 0.4 0.2
12-12-2017 15.3 (13:10) 10.8 (04:10) 13.1 25.56 (19:10) 9.44 (10:30) 3.8 3.6 0 0 0.2
11-12-2017 16.8 (12:50) 6.9 (06:40) 11.8 17.78 (23:50) 9.72 (23:50) 1.8 0 0 0.2 1.6
10-12-2017 18.1 (11:20) 8.8 (00:00) 13.5 10.56 (00:10) 6.67 (00:10) 0 0 0 0 0
09-12-2017 16.3 (14:00) 10.4 (00:00) 13.3 14.44 (03:40) 8.89 (03:40) 0 0 0 0 0
08-12-2017 15.9 (15:30) 6.6 (00:00) 11.2 16.11 (09:50) 9.44 (00:20) 0 0 0 0 0
07-12-2017 16.3 (13:00) 9.5 (00:00) 12.9 15.28 (20:30) 9.72 (20:10) 0 0 0 0 0
06-12-2017 16.3 (12:20) 8.3 (00:00) 12.3 15 (20:10) 8.89 (20:50) 0 0 0 0 0
05-12-2017 18.8 (13:40) 11.8 (00:00) 15.3 13.33 (22:20) 6.39 (22:00) 0 0 0 0 0
04-12-2017 15.9 (14:40) 11.8 (00:00) 13.8 12.22 (09:20) 7.22 (00:30) 0 0 0 0 0
03-12-2017 17.2 (12:20) 11.3 (00:00) 14.3 11.11 (23:20) 6.67 (23:30) 0.4 0.2 0 0 0.2
02-12-2017 19.1 (10:50) 11.4 (00:00) 15.3 5 (11:40) 3.33 (11:40) 17.6 0 0 17.2 0.4
01-12-2017 19.3 (13:50) 11.2 (00:00) 15.2 6.11 (15:20) 3.89 (15:00) 0 0 0 0 0
30-11-2017 19.2 (12:00) 12.9 (00:00) 16.1 5 (13:00) 3.33 (15:10) 2.6 2.4 0.2 0 0
29-11-2017 17.2 (13:30) 10.7 (00:00) 14 5.28 (16:40) 3.61 (11:10) 2.6 0 0 0 2.6
28-11-2017 19.5 (14:00) 11.9 (00:00) 15.7 6.39 (12:40) 4.44 (12:40) 0 0 0 0 0
27-11-2017 20.9 (12:10) 13.7 (00:00) 17.3 6.94 (15:40) 3.89 (12:50) 2.2 2 0.2 0 0
26-11-2017 18.1 (12:10) 15.5 (00:00) 16.8 8.33 (12:40) 4.17 (08:00) 0.4 0 0.4 0 0
25-11-2017 17.4 (00:00) 13 (00:00) 15.2 13.89 (07:20) 7.22 (07:20) 44 0 36.6 3.6 3.8
24-11-2017 20.7 (12:40) 12.1 (00:00) 16.4 7.78 (11:50) 5 (12:00) 0 0 0 0 0
23-11-2017 19 (13:20) 11.7 (00:00) 15.3 6.67 (12:30) 3.61 (12:20) 0 0 0 0 0
22-11-2017 20.5 (13:00) 10.6 (00:00) 15.6 6.67 (14:00) 3.89 (13:30) 0 0 0 0 0
21-11-2017 21.1 (12:20) 13.6 (00:00) 17.4 11.94 (03:20) 6.67 (06:10) 0 0 0 0 0
20-11-2017 20.7 (14:20) 13.1 (00:00) 16.9 11.67 (00:20) 7.5 (00:20) 0 0 0 0 0
19-11-2017 17.2 (14:50) 12 (00:00) 14.6 14.72 (17:40) 8.33 (20:50) 7 0 6.4 0.6 0
18-11-2017 19 (11:50) 9.2 (00:00) 14.1 7.78 (21:10) 3.61 (12:40) 0 0 0 0 0
17-11-2017 19.1 (14:10) 11.2 (00:00) 15.2 7.5 (10:40) 4.17 (10:40) 0.2 0 0.2 0 0

Gráficas

Temp. máximas Temp. mínimas Temp. medias Precipitaciones Rachas de viento máximas Velocidades máximas media en intervalos de 10 minutos

Datos horarios

Fecha y hora oficial Temperatura (ºC) Velocidad del viento (km/h) Dirección del viento Racha (km/h) Dirección de racha Precipitación (mm) Presión (hPa) Tendencia (hPa) Humedad (%)
2017-12-16 23:00:00 11.8 3 Este 6 Nordeste 0 -- -- 95
2017-12-16 22:00:00 11.9 3 Este 12 Sudeste 0 -- -- 94
2017-12-16 21:00:00 12.8 4 Este 6 Nordeste 0 -- -- 93
2017-12-16 20:00:00 14 0 Calma 5 Sudoeste 0 -- -- 92
2017-12-16 19:00:00 15.2 0 Calma 11 Oeste 0 -- -- 91
2017-12-16 18:00:00 15.8 5 Oeste 13 Oeste 0 -- -- 89
2017-12-16 17:00:00 16.4 6 Oeste 15 Oeste 0 -- -- 86
2017-12-16 16:00:00 17.1 9 Oeste 16 Noroeste 0 -- -- 83
2017-12-16 15:00:00 16.1 5 Oeste 17 Oeste 0 -- -- 84
2017-12-16 14:00:00 16.6 9 Oeste 19 Oeste 0 -- -- 83
2017-12-16 13:00:00 16 6 Oeste 10 Oeste 0 -- -- 84
2017-12-16 12:00:00 16.5 4 Oeste 13 Oeste 0 -- -- 79
2017-12-16 11:00:00 16.3 6 Oeste 14 Oeste 0 -- -- 80
2017-12-16 10:00:00 15.1 11 Oeste 17 Oeste 0 -- -- 81
2017-12-16 09:00:00 11.7 6 Sur 20 Sudeste 0 -- -- 92
2017-12-16 08:00:00 9.5 4 Nordeste 10 Este 0 -- -- 92
2017-12-16 07:00:00 9.4 4 Este 11 Nordeste 0 -- -- 94
2017-12-16 06:00:00 9.4 0 Calma 10 Este 0 -- -- 95
2017-12-16 05:00:00 8.9 2 Este 9 Este 0 -- -- 95
2017-12-16 04:00:00 9.1 3 Este 8 Este 0 -- -- 95
2017-12-16 03:00:00 9.4 4 Este 8 Este 0 -- -- 96
2017-12-16 02:00:00 9 4 Sudeste 9 Este 0 -- -- 91
2017-12-16 01:00:00 9.7 5 Sudeste 11 Sudeste 0 -- -- 92
2017-12-16 00:00:00 10.7 4 Este 9 Este 0 -- -- 93
2017-12-15 23:00:00 9.9 5 Este 9 Este 0 -- -- 88
2017-12-15 22:00:00 10.9 4 Este 6 Este 0 -- -- 89
2017-12-15 21:00:00 12.5 2 Este 6 Este 0 -- -- 90
2017-12-15 20:00:00 13.3 0 Calma 5 Noroeste 0 -- -- 90
2017-12-15 19:00:00 14.3 0 Calma 6 Sudoeste 0 -- -- 87
2017-12-15 18:00:00 15 5 Oeste 12 Oeste 0 -- -- 85
2017-12-15 17:00:00 15.6 9 Oeste 19 Sudeste 0 -- -- 82
2017-12-15 16:00:00 15.8 14 Sudeste 24 Sudeste 0 -- -- 76
2017-12-15 15:00:00 16.7 6 Oeste 23 Oeste 0 -- -- 79
2017-12-15 14:00:00 16.4 8 Sudoeste 21 Sudeste 0 -- -- 77
2017-12-15 13:00:00 16.6 10 Oeste 32 Este 0 -- -- 74
2017-12-15 12:00:00 15.9 23 Este 41 Este 0 -- -- 76
2017-12-15 11:00:00 15.8 14 Este 36 Este 0 -- -- 73
2017-12-15 10:00:00 14.5 22 Este 40 Este 0 -- -- 77
2017-12-15 09:00:00 11.7 10 Nordeste 27 Este 0 -- -- 87
2017-12-15 08:00:00 10.8 2 Este 28 Oeste 0 -- -- 92
2017-12-15 07:00:00 11.5 9 Norte 54 Este 0 -- -- 83
2017-12-15 06:00:00 12.5 39 Este 60 Este 0 -- -- 78
2017-12-15 05:00:00 11.8 32 Este 55 Este 0 -- -- 81
2017-12-15 04:00:00 11.6 26 Este 55 Este 0 -- -- 78
2017-12-15 03:00:00 11.8 33 Este 55 Este 0 -- -- 76
2017-12-15 02:00:00 11.6 31 Este 52 Este 0 -- -- 74
2017-12-15 01:00:00 11.5 21 Este 49 Este 0 -- -- 78
2017-12-15 00:00:00 11.6 19 Este 41 Este 0 -- -- 79
2017-12-14 23:00:00 11.2 18 Nordeste 41 Este 0 -- -- 79
2017-12-14 22:00:00 11.6 18 Este 46 Este 0 -- -- 77
2017-12-14 21:00:00 11.6 23 Este 42 Sudeste 0 -- -- 72
2017-12-14 20:00:00 11.6 26 Este 46 Sudeste 0 -- -- 74
2017-12-14 19:00:00 11.3 22 Este 38 Este 0 -- -- 75
2017-12-14 18:00:00 12 19 Sudeste 46 Sudeste 0 -- -- 72
2017-12-14 17:00:00 13.4 19 Este 34 Sudeste 0 -- -- 71
2017-12-14 16:00:00 14.6 15 Este 29 Este 0 -- -- 70
2017-12-14 15:00:00 14.8 16 Este 33 Este 0 -- -- 72
2017-12-14 14:00:00 14.4 20 Este 37 Este 0 -- -- 76
2017-12-14 13:00:00 14.7 20 Este 45 Este 0 -- -- 72
2017-12-14 12:00:00 14 28 Este 51 Sudeste 0 -- -- 72
2017-12-14 11:00:00 13.2 32 Este 49 Sudeste 0 -- -- 73
2017-12-14 10:00:00 12.2 28 Este 55 Este 0 -- -- 78
2017-12-14 09:00:00 10.9 30 Este 54 Este 0 -- -- 77
2017-12-14 08:00:00 10.9 31 Este 51 Este 0 -- -- 79
2017-12-14 07:00:00 11.5 14 Este 58 Nordeste 0 -- -- 79
2017-12-14 06:00:00 11.6 28 Este 60 Este 0 -- -- 78
2017-12-14 05:00:00 11.2 27 Este 53 Este 0 -- -- 74
2017-12-14 04:00:00 11.7 18 Nordeste 56 Sudeste 0 -- -- 75
2017-12-14 03:00:00 11.5 21 Nordeste 69 Este 0 -- -- 73
2017-12-14 02:00:00 11.4 20 Este 70 Este 0 -- -- 70
2017-12-14 01:00:00 11.7 21 Nordeste 67 Nordeste 0 -- -- 78
2017-12-14 00:00:00 11.6 19 Este 78 Este 0 -- -- 72
2017-12-13 23:00:00 11.8 15 Nordeste 69 Este 0 -- -- 76
2017-12-13 22:00:00 12.1 21 Este 72 Nordeste 0 -- -- 80
2017-12-13 21:00:00 12.1 18 Nordeste 78 Nordeste 0 -- -- 82
2017-12-13 20:00:00 11.7 21 Nordeste 71 Sudeste 0.2 -- -- 82
2017-12-13 19:00:00 12.1 24 Nordeste 64 Este 0 -- -- 68
2017-12-13 18:00:00 12.1 18 Nordeste 65 Este 0 -- -- 79
2017-12-13 17:00:00 12.3 22 Este 62 Sudeste 0.2 -- -- 74
2017-12-13 16:00:00 12.6 17 Este 63 Sudeste 0 -- -- 78
2017-12-13 15:00:00 12.8 16 Nordeste 60 Este 0 -- -- 74
2017-12-13 14:00:00 13.2 17 Nordeste 59 Este 0 -- -- 71
2017-12-13 13:00:00 12.6 19 Este 59 Norte 0.2 -- -- 77
2017-12-13 12:00:00 12.8 16 Nordeste 65 Este 0 -- -- 72
2017-12-13 11:00:00 11.9 34 Nordeste 85 Este 0.2 -- -- 76
2017-12-13 10:00:00 10.5 38 Este 90 Este 0.4 -- -- 89
2017-12-13 09:00:00 10.5 42 Este 87 Nordeste 0.8 -- -- 79
2017-12-13 08:00:00 10.1 29 Este 70 Sudeste 2.6 -- -- 93
2017-12-13 07:00:00 10.3 23 Este 62 Este 2.2 -- -- 90
2017-12-13 06:00:00 10.4 29 Este 71 Este 0.4 -- -- 84
2017-12-13 05:00:00 10.5 29 Este 73 Este 0.6 -- -- 79
2017-12-13 04:00:00 10.6 28 Este 62 Este 0 -- -- 82
2017-12-13 03:00:00 11.5 25 Nordeste 62 Este 0 -- -- 74
2017-12-13 02:00:00 12 23 Nordeste 59 Este 0 -- -- 67
2017-12-13 01:00:00 11.8 15 Este 56 Este 0 -- -- 70
2017-12-13 00:00:00 11.5 26 Este 51 Este 0 -- -- 74
2017-12-12 23:00:00 11.6 25 Este 62 Sudeste 0 -- -- 59
2017-12-12 22:00:00 11.3 23 Este 58 Sudeste 0.2 -- -- 80
2017-12-12 21:00:00 12.1 27 Este 64 Este 0 -- -- 65
2017-12-12 20:00:00 12 19 Nordeste 92 Este 0 -- -- 66
2017-12-12 19:00:00 12.3 14 Nordeste 65 Nordeste 0 -- -- 65
2017-12-12 18:00:00 12.8 13 Este 52 Nordeste 0 -- -- 53
2017-12-12 17:00:00 13.9 14 Nordeste 46 Nordeste 0 -- -- 59
2017-12-12 16:00:00 13.5 10 Noroeste 40 Este 0 -- -- 73
2017-12-12 15:00:00 14.1 18 Norte 48 Nordeste 0 -- -- 68
2017-12-12 14:00:00 14.7 21 Nordeste 53 Este 0 -- -- 62
2017-12-12 13:00:00 15.1 26 Este 56 Nordeste 0 -- -- 58
2017-12-12 12:00:00 14.3 27 Nordeste 53 Nordeste 0 -- -- 54
2017-12-12 11:00:00 13.8 24 Nordeste 66 Este 0 -- -- 56
2017-12-12 10:00:00 13 23 Este 52 Este 0 -- -- 45
2017-12-12 09:00:00 11.4 25 Nordeste 63 Este 0 -- -- 64
2017-12-12 08:00:00 11 26 Este 70 Este 0 -- -- 66
2017-12-12 07:00:00 11 28 Este 58 Este 0 -- -- 78
2017-12-12 06:00:00 11.3 13 Nordeste 52 Nordeste 0 -- -- 72
2017-12-12 05:00:00 11.5 25 Nordeste 58 Este 0 -- -- 68
2017-12-12 04:00:00 11 24 Este 60 Este 0.4 -- -- 79
2017-12-12 03:00:00 11 28 Este 66 Este 0.4 -- -- 87
2017-12-12 02:00:00 11.1 10 Nordeste 45 Este 1.6 -- -- 85
2017-12-12 01:00:00 11.6 22 Sudeste 57 Este 1.2 -- -- 86
2017-12-12 00:00:00 11.9 22 Sudeste 64 Este 0 -- -- 83
2017-12-11 23:00:00 11.9 35 Este 59 Este 0 -- -- 88
2017-12-11 22:00:00 13 17 Sudeste 40 Este 0 -- -- 88
2017-12-11 21:00:00 13.9 5 Oeste 14 Sudeste 0 -- -- 93
2017-12-11 20:00:00 14.5 2 Sudoeste 24 Sudeste 0 -- -- 94
2017-12-11 19:00:00 14.1 12 Sudeste 23 Este 1.6 -- -- 90
2017-12-11 18:00:00 14.8 16 Oeste 36 Oeste 0.2 -- -- 92
2017-12-11 17:00:00 15.2 11 Oeste 26 Oeste 0 -- -- 87
2017-12-11 16:00:00 15.4 13 Oeste 23 Oeste 0 -- -- 83
2017-12-11 15:00:00 16.5 9 Sudoeste 23 Oeste 0 -- -- 77
2017-12-11 14:00:00 16.5 9 Sudoeste 21 Oeste 0 -- -- 77
2017-12-11 13:00:00 16.8 8 Sur 23 Oeste 0 -- -- 73
2017-12-11 12:00:00 16.2 8 Oeste 18 Oeste 0 -- -- 74
2017-12-11 11:00:00 14.5 2 Sur 13 Noroeste 0 -- -- 83
2017-12-11 10:00:00 11.7 0 Calma 8 Este 0 -- -- 89
2017-12-11 09:00:00 8.6 4 Este 10 Este 0 -- -- 90
2017-12-11 08:00:00 8 5 Este 11 Este 0 -- -- 89
2017-12-11 07:00:00 7.5 4 Este 11 Este 0 -- -- 86
2017-12-11 06:00:00 7.6 4 Sudeste 12 Sudeste 0 -- -- 81
2017-12-11 05:00:00 8 5 Este 11 Sudeste 0 -- -- 80
2017-12-11 04:00:00 7.5 5 Este 9 Este 0 -- -- 87
2017-12-11 03:00:00 7.2 6 Este 12 Este 0 -- -- 82
2017-12-11 02:00:00 7.7 3 Sudeste 7 Sudeste 0 -- -- 81
2017-12-11 01:00:00 8.3 4 Sudeste 9 Sudeste 0 -- -- 77
2017-12-11 00:00:00 8.8 5 Este 10 Este 0 -- -- 88
2017-12-10 23:00:00 9.2 2 Nordeste 10 Este 0 -- -- 83
2017-12-10 22:00:00 10.1 2 Este 9 Sudeste 0 -- -- 86
2017-12-10 21:00:00 11 4 Sudeste 11 Nordeste 0 -- -- 87
2017-12-10 20:00:00 12.3 3 Sudeste 11 Sudeste 0 -- -- 79
2017-12-10 19:00:00 14.2 3 Sudeste 10 Oeste 0 -- -- 84
2017-12-10 18:00:00 15.2 2 Oeste 13 Oeste 0 -- -- 81
2017-12-10 17:00:00 16.4 9 Oeste 15 Oeste 0 -- -- 77
2017-12-10 16:00:00 16.9 9 Sudoeste 17 Oeste 0 -- -- 76
2017-12-10 15:00:00 17.3 12 Oeste 19 Oeste 0 -- -- 71
2017-12-10 14:00:00 17.8 11 Oeste 19 Oeste 0 -- -- 67
2017-12-10 13:00:00 17.8 11 Oeste 20 Oeste 0 -- -- 64
2017-12-10 12:00:00 17.8 7 Oeste 21 Sudeste 0 -- -- 56
2017-12-10 11:00:00 17.9 9 Sur 25 Sudeste 0 -- -- 28
2017-12-10 10:00:00 16.6 10 Sur 23 Este 0 -- -- 27
2017-12-10 09:00:00 14.4 18 Sudeste 27 Sudeste 0 -- -- 24
2017-12-10 08:00:00 13.1 15 Sudeste 23 Sudeste 0 -- -- 25
2017-12-10 07:00:00 10.9 2 Sudoeste 13 Sudeste 0 -- -- 31
2017-12-10 06:00:00 10.2 5 Sudeste 17 Sudeste 0 -- -- 34
2017-12-10 05:00:00 10.5 4 Sudeste 10 Sudeste 0 -- -- 30
2017-12-10 04:00:00 11.3 2 Sudeste 15 Este 0 -- -- 29
2017-12-10 03:00:00 9.8 4 Sur 10 Sur 0 -- -- 54
2017-12-10 02:00:00 10.5 4 Oeste 15 Este 0 -- -- 63
2017-12-10 01:00:00 11.7 7 Sudeste 38 Este 0 -- -- 50
2017-12-10 00:00:00 12.1 26 Sudeste 42 Sudeste 0 -- -- 69
2017-12-09 23:00:00 12.6 18 Sudeste 32 Sudeste 0 -- -- 58
2017-12-09 22:00:00 11.2 2 Nordeste 21 Este 0 -- -- 71
2017-12-09 21:00:00 11.7 8 Este 24 Este 0 -- -- 66
2017-12-09 20:00:00 10.4 4 Este 11 Sur 0 -- -- 80
2017-12-09 19:00:00 12.1 9 Sudeste 19 Este 0 -- -- 69
2017-12-09 18:00:00 13.2 4 Este 18 Este 0 -- -- 71
2017-12-09 17:00:00 14.1 10 Este 19 Este 0 -- -- 74
2017-12-09 16:00:00 14.7 6 Oeste 13 Oeste 0 -- -- 72
2017-12-09 15:00:00 15.6 8 Oeste 19 Oeste 0 -- -- 67
2017-12-09 14:00:00 16.3 9 Oeste 19 Oeste 0 -- -- 69
2017-12-09 13:00:00 15.1 12 Este 31 Sudeste 0 -- -- 68
2017-12-09 12:00:00 14.4 21 Este 35 Este 0 -- -- 75
2017-12-09 11:00:00 14.2 21 Este 39 Sudeste 0 -- -- 72
2017-12-09 10:00:00 12.6 18 Este 40 Sudeste 0 -- -- 77
2017-12-09 09:00:00 11.9 24 Sudeste 43 Este 0 -- -- 74
2017-12-09 08:00:00 11.5 27 Este 48 Sudeste 0 -- -- 81
2017-12-09 07:00:00 11.3 22 Este 46 Sudeste 0 -- -- 81
2017-12-09 06:00:00 11.5 30 Este 52 Nordeste 0 -- -- 79
2017-12-09 05:00:00 10.8 26 Este 48 Este 0 -- -- 82
2017-12-09 04:00:00 10.9 29 Este 52 Este 0 -- -- 81
2017-12-09 03:00:00 10.7 28 Este 45 Este 0 -- -- 80
2017-12-09 02:00:00 10.6 24 Sudeste 45 Este 0 -- -- 81
2017-12-09 01:00:00 10.9 18 Este 42 Este 0 -- -- 78
2017-12-09 00:00:00 10.8 24 Sudeste 48 Sudeste 0 -- -- 81
2017-12-08 23:00:00 11 26 Este 39 Sudeste 0 -- -- 81
2017-12-08 22:00:00 11.3 10 Sudeste 41 Sudeste 0 -- -- 82
2017-12-08 21:00:00 11.8 25 Este 42 Este 0 -- -- 82
2017-12-08 20:00:00 12 18 Este 37 Este 0 -- -- 81
2017-12-08 19:00:00 12.1 19 Este 45 Este 0 -- -- 78
2017-12-08 18:00:00 12.8 14 Este 25 Este 0 -- -- 78
2017-12-08 17:00:00 15.2 9 Oeste 27 Oeste 0 -- -- 73
2017-12-08 16:00:00 15.8 11 Oeste 18 Oeste 0 -- -- 71
2017-12-08 15:00:00 15.4 10 Oeste 36 Este 0 -- -- 72
2017-12-08 14:00:00 15 26 Este 47 Este 0 -- -- 65
2017-12-08 13:00:00 14.5 24 Este 49 Sudeste 0 -- -- 76
2017-12-08 12:00:00 14.3 27 Este 51 Sudeste 0 -- -- 74
2017-12-08 11:00:00 13.4 32 Este 51 Este 0 -- -- 75
2017-12-08 10:00:00 13.3 13 Este 58 Este 0 -- -- 72
2017-12-08 09:00:00 10.9 22 Este 41 Este 0 -- -- 79
2017-12-08 08:00:00 10.1 14 Sudeste 31 Sudeste 0 -- -- 77
2017-12-08 07:00:00 7.1 4 Este 15 Este 0 -- -- 57
2017-12-08 06:00:00 6.9 3 Este 9 Sudeste 0 -- -- 78
2017-12-08 05:00:00 9.2 4 Oeste 14 Oeste 0 -- -- 64
2017-12-08 04:00:00 10.9 4 Sur 33 Sudeste 0 -- -- 55
2017-12-08 03:00:00 10.6 23 Sudeste 48 Este 0 -- -- 71
2017-12-08 02:00:00 10.6 25 Este 49 Este 0 -- -- 70
2017-12-08 01:00:00 10.7 32 Este 57 Este 0 -- -- 73
2017-12-08 00:00:00 11.2 31 Este 50 Este 0 -- -- 68
2017-12-07 23:00:00 10.7 32 Este 53 Este 0 -- -- 78
2017-12-07 22:00:00 10.9 28 Este 45 Este 0 -- -- 81
2017-12-07 21:00:00 11.2 29 Este 55 Este 0 -- -- 80
2017-12-07 20:00:00 11.5 34 Este 54 Sudeste 0 -- -- 79
2017-12-07 19:00:00 11.7 21 Este 36 Este 0 -- -- 77
2017-12-07 18:00:00 12.5 12 Este 28 Sudeste 0 -- -- 75
2017-12-07 17:00:00 13.8 13 Sudeste 31 Este 0 -- -- 75
2017-12-07 16:00:00 14.1 22 Este 37 Este 0 -- -- 74
2017-12-07 15:00:00 15 8 Oeste 18 Oeste 0 -- -- 74
2017-12-07 14:00:00 16 11 Oeste 20 Oeste 0 -- -- 69
2017-12-07 13:00:00 16.3 7 Noroeste 18 Noroeste 0 -- -- 69
2017-12-07 12:00:00 15.7 9 Oeste 18 Oeste 0 -- -- 68
2017-12-07 11:00:00 15.8 9 Oeste 17 Oeste 0 -- -- 65
2017-12-07 10:00:00 13.7 6 Norte 13 Sudoeste 0 -- -- 70
2017-12-07 09:00:00 9.5 10 Este 37 Este 0 -- -- 69
2017-12-07 08:00:00 10.6 17 Este 37 Este 0 -- -- 79
2017-12-07 07:00:00 10.9 19 Este 37 Este 0 -- -- 78
2017-12-07 06:00:00 10.5 22 Este 37 Este 0 -- -- 80
2017-12-07 05:00:00 10.8 21 Este 45 Este 0 -- -- 81
2017-12-07 04:00:00 11 23 Este 52 Este 0 -- -- 76
2017-12-07 03:00:00 11.1 22 Este 49 Este 0 -- -- 73
2017-12-07 02:00:00 11.1 25 Este 53 Este 0 -- -- 78
2017-12-07 01:00:00 11.2 24 Este 49 Este 0 -- -- 72
2017-12-07 00:00:00 11.3 23 Este 43 Este 0 -- -- 76
2017-12-06 23:00:00 11.3 23 Este 46 Este 0 -- -- 77
2017-12-06 22:00:00 11.7 25 Este 48 Este 0 -- -- 71
2017-12-06 21:00:00 11.8 31 Este 54 Sudeste 0 -- -- 73
2017-12-06 20:00:00 11.8 29 Este 49 Este 0 -- -- 74
2017-12-06 19:00:00 12.1 23 Este 47 Este 0 -- -- 72
2017-12-06 18:00:00 12.5 21 Este 33 Este 0 -- -- 73
2017-12-06 17:00:00 15.3 6 Oeste 18 Este 0 -- -- 70
2017-12-06 16:00:00 14.8 13 Sudeste 27 Sudeste 0 -- -- 66
2017-12-06 15:00:00 14.9 17 Sudeste 28 Este 0 -- -- 65
2017-12-06 14:00:00 15.6 18 Este 31 Este 0 -- -- 64
2017-12-06 13:00:00 15.3 10 Este 20 Este 0 -- -- 67
2017-12-06 12:00:00 15.8 4 Oeste 16 Oeste 0 -- -- 65
2017-12-06 11:00:00 16.1 5 Oeste 12 Oeste 0 -- -- 61
2017-12-06 10:00:00 13.3 3 Nordeste 7 Nordeste 0 -- -- 72
2017-12-06 09:00:00 10 5 Este 10 Este 0 -- -- 77
2017-12-06 08:00:00 10.7 5 Sudeste 29 Este 0 -- -- 79
2017-12-06 07:00:00 11.6 19 Este 41 Sudeste 0 -- -- 74
2017-12-06 06:00:00 11.6 19 Este 38 Este 0 -- -- 66
2017-12-06 05:00:00 8.5 5 Este 10 Este 0 -- -- 71
2017-12-06 04:00:00 8.9 5 Sudeste 10 Sudeste 0 -- -- 70
2017-12-06 03:00:00 10.9 6 Sudeste 29 Este 0 -- -- 71
2017-12-06 02:00:00 11.7 15 Este 35 Este 0 -- -- 71
2017-12-06 01:00:00 12.2 19 Sudeste 39 Este 0 -- -- 73
2017-12-06 00:00:00 13.2 13 Sudeste 33 Nordeste 0 -- -- 40
2017-12-05 23:00:00 13.7 13 Este 48 Este 0 -- -- 35
2017-12-05 22:00:00 13.1 23 Este 41 Este 0 -- -- 72
2017-12-05 21:00:00 14.3 10 Este 32 Este 0 -- -- 41
2017-12-05 20:00:00 14.2 8 Este 22 Este 0 -- -- 41
2017-12-05 19:00:00 14.4 9 Este 31 Este 0 -- -- 43
2017-12-05 18:00:00 15.5 15 Este 30 Este 0 -- -- 46
2017-12-05 17:00:00 16.6 13 Este 28 Este 0 -- -- 48
2017-12-05 16:00:00 16.9 17 Sudeste 33 Este 0 -- -- 63
2017-12-05 15:00:00 17.5 20 Este 33 Este 0 -- -- 46
2017-12-05 14:00:00 18.8 13 Este 26 Este 0 -- -- 42
2017-12-05 13:00:00 18.3 16 Este 26 Este 0 -- -- 49
2017-12-05 12:00:00 17.6 15 Este 31 Este 0 -- -- 52
2017-12-05 11:00:00 17.2 16 Este 30 Este 0 -- -- 47
2017-12-05 10:00:00 15.9 16 Este 29 Este 0 -- -- 51
2017-12-05 09:00:00 13.9 15 Este 26 Sudeste 0 -- -- 51
2017-12-05 08:00:00 12.6 16 Este 24 Sudeste 0 -- -- 59
2017-12-05 07:00:00 12.5 15 Este 25 Este 0 -- -- 59
2017-12-05 06:00:00 12.4 10 Sudeste 27 Este 0 -- -- 79
2017-12-05 05:00:00 12.4 10 Sudeste 19 Este 0 -- -- 73
2017-12-05 04:00:00 11.8 7 Este 28 Sudeste 0 -- -- 78
2017-12-05 03:00:00 12.7 17 Sudeste 26 Sudeste 0 -- -- 81
2017-12-05 02:00:00 13 10 Sudeste 21 Este 0 -- -- 81
2017-12-05 01:00:00 12.8 12 Sudeste 21 Este 0 -- -- 79
2017-12-05 00:00:00 12.8 11 Sudeste 23 Este 0 -- -- 81
2017-12-04 23:00:00 12.3 12 Sudeste 26 Sudeste 0 -- -- 82
2017-12-04 22:00:00 12.4 13 Sudeste 27 Sudeste 0 -- -- 84
2017-12-04 21:00:00 12.3 16 Sudeste 33 Sudeste 0 -- -- 83
2017-12-04 20:00:00 12.5 13 Este 33 Este 0 -- -- 80
2017-12-04 19:00:00 12.7 17 Sudeste 38 Este 0 -- -- 82
2017-12-04 18:00:00 13.2 20 Este 36 Este 0 -- -- 80
2017-12-04 17:00:00 14.3 19 Este 38 Este 0 -- -- 78
2017-12-04 16:00:00 15.2 16 Sudeste 27 Sudeste 0 -- -- 74
2017-12-04 15:00:00 15.7 15 Este 25 Sudeste 0 -- -- 71
2017-12-04 14:00:00 15.2 18 Sudeste 32 Sudeste 0 -- -- 75
2017-12-04 13:00:00 14.9 22 Sudeste 38 Este 0 -- -- 79
2017-12-04 12:00:00 14.7 23 Sudeste 42 Este 0 -- -- 79
2017-12-04 11:00:00 14.4 24 Este 41 Este 0 -- -- 75
2017-12-04 10:00:00 13 22 Este 44 Este 0 -- -- 85
2017-12-04 09:00:00 11.8 22 Este 37 Este 0 -- -- 88
2017-12-04 08:00:00 11.9 21 Este 36 Sudeste 0 -- -- 90
2017-12-04 07:00:00 11.9 17 Este 36 Este 0 -- -- 91
2017-12-04 06:00:00 12.3 19 Este 41 Este 0 -- -- 91
2017-12-04 05:00:00 12.4 18 Este 39 Este 0 -- -- 85
2017-12-04 04:00:00 12.1 19 Este 37 Este 0 -- -- 92
2017-12-04 03:00:00 12.3 23 Este 39 Este 0 -- -- 94
2017-12-04 02:00:00 12.4 20 Este 33 Este 0 -- -- 94
2017-12-04 01:00:00 12.8 20 Este 39 Este 0 -- -- 95
2017-12-04 00:00:00 13.1 22 Este 40 Este 0.2 -- -- 93
2017-12-03 23:00:00 13.4 16 Este 28 Este 0 -- -- 92
2017-12-03 22:00:00 13.4 8 Sudeste 29 Este 0 -- -- 89
2017-12-03 21:00:00 13.3 12 Este 26 Este 0 -- -- 90
2017-12-03 20:00:00 13.6 12 Este 28 Este 0 -- -- 90
2017-12-03 19:00:00 14.1 10 Sudeste 18 Este 0 -- -- 89
2017-12-03 18:00:00 14.5 10 Sudeste 26 Este 0 -- -- 88
2017-12-03 17:00:00 15.5 14 Este 28 Este 0 -- -- 87
2017-12-03 16:00:00 15.4 7 Sudeste 19 Sudeste 0 -- -- 86
2017-12-03 15:00:00 15.7 9 Sudeste 24 Este 0 -- -- 85
2017-12-03 14:00:00 16.4 18 Sudeste 28 Este 0 -- -- 83
2017-12-03 13:00:00 17 15 Este 30 Este 0 -- -- 83
2017-12-03 12:00:00 16.9 18 Este 30 Sudeste 0 -- -- 84
2017-12-03 11:00:00 16.2 13 Sudeste 23 Este 0 -- -- 89
2017-12-03 10:00:00 15 8 Este 17 Sudeste 0 -- -- 93
2017-12-03 09:00:00 12.1 6 Este 9 Nordeste 0 -- -- 97
2017-12-03 08:00:00 11.9 0 Calma 9 Nordeste 0 -- -- 94
2017-12-03 07:00:00 11.8 5 Este 9 Este 0 -- -- 96
2017-12-03 06:00:00 11.5 6 Este 10 Este 0 -- -- 97
2017-12-03 05:00:00 11.4 5 Este 10 Sudeste 0 -- -- 96
2017-12-03 04:00:00 11.5 4 Este 9 Este 0 -- -- 96
2017-12-03 03:00:00 11.7 6 Este 10 Este 0 -- -- 96
2017-12-03 02:00:00 12 4 Este 12 Este 0 -- -- 96
2017-12-03 01:00:00 12.5 5 Este 13 Este 0.2 -- -- 96
2017-12-03 00:00:00 12.5 4 Este 9 Sudeste 0 -- -- 96
2017-12-02 23:00:00 12.9 4 Este 8 Este 0 -- -- 96
2017-12-02 22:00:00 12.9 4 Este 6 Este 0 -- -- 96
2017-12-02 21:00:00 14 5 Este 9 Este 0 -- -- 94
2017-12-02 20:00:00 15.2 0 Calma 4 Oeste 0 -- -- 95
2017-12-02 19:00:00 15.6 0 Calma 6 Oeste 0.4 -- -- 96
2017-12-02 18:00:00 15.8 3 Oeste 14 Oeste 6.8 -- -- 95
2017-12-02 17:00:00 16.5 3 Oeste 8 Oeste 4 -- -- 94
2017-12-02 16:00:00 16.5 2 Oeste 13 Oeste 3 -- -- 94
2017-12-02 15:00:00 16.7 6 Oeste 16 Oeste 3.2 -- -- 92
2017-12-02 14:00:00 17.6 6 Oeste 14 Oeste 0.2 -- -- 88
2017-12-02 13:00:00 17.9 9 Oeste 17 Oeste 0 -- -- 85
2017-12-02 12:00:00 18.5 11 Oeste 18 Oeste 0 -- -- 81
2017-12-02 11:00:00 18.9 6 Oeste 11 Sudoeste 0 -- -- 79
2017-12-02 10:00:00 17.5 2 Sur 7 Este 0 -- -- 87
2017-12-02 09:00:00 12.9 3 Este 6 Este 0 -- -- 98
2017-12-02 08:00:00 11.8 4 Sudeste 9 Este 0 -- -- 96
2017-12-02 07:00:00 11.6 5 Este 8 Este 0 -- -- 96
2017-12-02 06:00:00 11.5 5 Este 10 Este 0 -- -- 95
2017-12-02 05:00:00 11.8 5 Este 8 Este 0 -- -- 95
2017-12-02 04:00:00 11.9 4 Este 7 Este 0 -- -- 95
2017-12-02 03:00:00 12.4 6 Este 9 Este 0 -- -- 93
2017-12-02 02:00:00 12.6 4 Este 8 Este 0 -- -- 93
2017-12-02 01:00:00 13.8 4 Este 9 Este 0 -- -- 92
2017-12-02 00:00:00 14.9 3 Sudeste 5 Este 0 -- -- 93
2017-12-01 23:00:00 14.9 3 Este 6 Este 0 -- -- 92
2017-12-01 22:00:00 15 4 Este 6 Este 0 -- -- 91
2017-12-01 21:00:00 15.7 0 Calma 3 Nordeste 0 -- -- 89
2017-12-01 20:00:00 16.2 2 Nordeste 5 Nordeste 0 -- -- 88
2017-12-01 19:00:00 17.3 0 Calma 13 Oeste 0 -- -- 85
2017-12-01 18:00:00 18.3 7 Oeste 13 Oeste 0 -- -- 80
2017-12-01 17:00:00 19 8 Oeste 18 Oeste 0 -- -- 81
2017-12-01 16:00:00 19.3 10 Oeste 22 Oeste 0 -- -- 77
2017-12-01 15:00:00 18.8 14 Oeste 21 Oeste 0 -- -- 81
2017-12-01 14:00:00 19 10 Oeste 18 Oeste 0 -- -- 81
2017-12-01 13:00:00 18.6 12 Oeste 17 Oeste 0 -- -- 85
2017-12-01 12:00:00 18.5 11 Oeste 18 Oeste 0 -- -- 84
2017-12-01 11:00:00 18.5 3 Oeste 8 Noroeste 0 -- -- 80
2017-12-01 10:00:00 17.2 3 Oeste 6 Oeste 0 -- -- 87
2017-12-01 09:00:00 13.7 3 Este 6 Sudeste 0 -- -- 97
2017-12-01 08:00:00 11.9 3 Sudeste 5 Sudeste 0 -- -- 97
2017-12-01 07:00:00 11.4 3 Sudeste 6 Este 0 -- -- 96
2017-12-01 06:00:00 11.6 5 Este 8 Este 0 -- -- 96
2017-12-01 05:00:00 12 4 Sudeste 8 Sudeste 0 -- -- 96
2017-12-01 04:00:00 11.9 4 Sudeste 6 Este 0 -- -- 96
2017-12-01 03:00:00 12.3 4 Sudeste 9 Este 0 -- -- 95
2017-12-01 02:00:00 12.3 5 Este 6 Este 0 -- -- 95
2017-12-01 01:00:00 12.6 5 Este 9 Este 0 -- -- 95
2017-12-01 00:00:00 12.9 6 Este 9 Este 0 -- -- 94
2017-11-30 23:00:00 13.9 3 Sudeste 5 Nordeste 0 -- -- 94
2017-11-30 22:00:00 13.7 5 Este 8 Este 0 -- -- 93
2017-11-30 21:00:00 13.9 3 Sudeste 7 Este 0 -- -- 92
2017-11-30 20:00:00 14.7 4 Este 7 Este 0 -- -- 91
2017-11-30 19:00:00 16.4 3 Este 7 Oeste 0 -- -- 89
2017-11-30 18:00:00 17.9 4 Oeste 14 Oeste 0 -- -- 84
2017-11-30 17:00:00 19 9 Oeste 14 Oeste 0 -- -- 81
2017-11-30 16:00:00 18.5 3 Oeste 16 Oeste 0 -- -- 83
2017-11-30 15:00:00 18.9 8 Oeste 15 Oeste 0 -- -- 81
2017-11-30 14:00:00 18.4 6 Oeste 14 Oeste 0 -- -- 84
2017-11-30 13:00:00 18.7 10 Oeste 18 Oeste 0 -- -- 84
2017-11-30 12:00:00 19.2 4 Sudoeste 16 Oeste 0 -- -- 82
2017-11-30 11:00:00 18.8 7 Oeste 12 Oeste 0 -- -- 82
2017-11-30 10:00:00 17.1 3 Este 5 Este 0 -- -- 89
2017-11-30 09:00:00 14.3 3 Este 7 Nordeste 0 -- -- 97
2017-11-30 08:00:00 14.2 3 Este 4 Nordeste 0.2 -- -- 96
2017-11-30 07:00:00 14.2 2 Este 4 Este 0 -- -- 96
2017-11-30 06:00:00 14.4 0 Calma 3 Sudeste 0 -- -- 96
2017-11-30 05:00:00 14.9 2 Sudoeste 10 Oeste 0 -- -- 97
2017-11-30 04:00:00 14.8 8 Oeste 12 Sudoeste 0.2 -- -- 97
2017-11-30 03:00:00 14.5 4 Oeste 8 Oeste 1.4 -- -- 97
2017-11-30 02:00:00 14.3 0 Calma 5 Nordeste 0.2 -- -- 97
2017-11-30 01:00:00 14.2 0 Calma 8 Sudeste 0.6 -- -- 97
2017-11-30 00:00:00 14.1 2 Este 4 Este 2.4 -- -- 96
2017-11-29 23:00:00 13.8 2 Sudeste 5 Este 0.2 -- -- 95
2017-11-29 22:00:00 13.1 3 Este 5 Este 0 -- -- 94
2017-11-29 21:00:00 13.4 0 Calma 4 Este 0 -- -- 93
2017-11-29 20:00:00 14.4 3 Este 8 Oeste 0 -- -- 90
2017-11-29 19:00:00 15.6 5 Oeste 13 Noroeste 0 -- -- 90
2017-11-29 18:00:00 16.2 4 Noroeste 9 Oeste 0 -- -- 88
2017-11-29 17:00:00 16.7 7 Oeste 19 Oeste 0 -- -- 85
2017-11-29 16:00:00 16.6 8 Oeste 13 Oeste 0 -- -- 81
2017-11-29 15:00:00 16.9 8 Oeste 15 Oeste 0 -- -- 81
2017-11-29 14:00:00 17.1 9 Oeste 15 Sudoeste 0 -- -- 79
2017-11-29 13:00:00 17.1 8 Oeste 15 Oeste 0 -- -- 80
2017-11-29 12:00:00 17.1 10 Oeste 18 Oeste 0 -- -- 77
2017-11-29 11:00:00 16.5 11 Oeste 16 Oeste 0 -- -- 80
2017-11-29 10:00:00 14.4 8 Oeste 12 Oeste 0 -- -- 88
2017-11-29 09:00:00 12.8 3 Sudeste 6 Este 0 -- -- 95
2017-11-29 08:00:00 11.4 2 Sur 7 Este 0 -- -- 95
2017-11-29 07:00:00 11 3 Sudeste 4 Sudeste 0 -- -- 94
2017-11-29 06:00:00 11.2 0 Calma 3 Este 0 -- -- 94
2017-11-29 05:00:00 11.2 2 Sudeste 6 Sudoeste 0 -- -- 95
2017-11-29 04:00:00 11.2 0 Calma 4 Este 0 -- -- 95
2017-11-29 03:00:00 11.1 2 Sudeste 5 Sudeste 0 -- -- 96
2017-11-29 02:00:00 11.1 2 Este 4 Sudeste 0 -- -- 94
2017-11-29 01:00:00 11.3 0 Calma 6 Este 0 -- -- 96
2017-11-29 00:00:00 11.9 3 Nordeste 7 Nordeste 0 -- -- 94
2017-11-28 23:00:00 13.4 3 Este 8 Sudeste 0 -- -- 96
2017-11-28 22:00:00 13.3 3 Este 4 Este 0 -- -- 94
2017-11-28 21:00:00 13.3 2 Este 5 Sudeste 0 -- -- 89
2017-11-28 20:00:00 14.7 2 Sudeste 6 Nordeste 0 -- -- 90
2017-11-28 19:00:00 16.3 0 Calma 10 Oeste 0 -- -- 90
2017-11-28 18:00:00 17.3 6 Oeste 12 Oeste 0 -- -- 87
2017-11-28 17:00:00 18 8 Oeste 17 Oeste 0 -- -- 85
2017-11-28 16:00:00 18.5 12 Oeste 18 Oeste 0 -- -- 84
2017-11-28 15:00:00 18.9 13 Oeste 20 Oeste 0 -- -- 82
2017-11-28 14:00:00 19.5 11 Oeste 22 Oeste 0 -- -- 79
2017-11-28 13:00:00 19.4 13 Oeste 23 Oeste 0 -- -- 77
2017-11-28 12:00:00 18.9 13 Oeste 22 Oeste 0 -- -- 78
2017-11-28 11:00:00 17.8 11 Oeste 15 Sudoeste 0 -- -- 81
2017-11-28 10:00:00 15.9 6 Oeste 11 Oeste 0 -- -- 91
2017-11-28 09:00:00 14.1 0 Calma 5 Sudeste 0 -- -- 93
2017-11-28 08:00:00 12.8 2 Sudeste 5 Sudeste 0 -- -- 92
2017-11-28 07:00:00 12.3 2 Sudeste 5 Este 0 -- -- 93
2017-11-28 06:00:00 12.9 4 Sudeste 6 Sudeste 0 -- -- 93
2017-11-28 05:00:00 12.7 3 Sudeste 6 Sudeste 0 -- -- 92
2017-11-28 04:00:00 13.1 4 Sudeste 9 Este 0 -- -- 92
2017-11-28 03:00:00 12.9 4 Este 6 Este 0 -- -- 91
2017-11-28 02:00:00 13.7 3 Sudeste 8 Sur 0 -- -- 90
2017-11-28 01:00:00 13.3 3 Sur 6 Este 0 -- -- 93
2017-11-28 00:00:00 13.7 3 Sudeste 9 Este 0 -- -- 92
2017-11-27 23:00:00 14.4 4 Este 8 Sudeste 0 -- -- 91
2017-11-27 22:00:00 14.9 3 Este 6 Sur 0 -- -- 90
2017-11-27 21:00:00 15.4 5 Este 6 Este 0 -- -- 88
2017-11-27 20:00:00 16.1 2 Este 8 Sudeste 0 -- -- 89
2017-11-27 19:00:00 17.8 2 Sudeste 15 Oeste 0 -- -- 88
2017-11-27 18:00:00 19.5 10 Noroeste 17 Oeste 0 -- -- 83
2017-11-27 17:00:00 20.2 10 Oeste 19 Oeste 0 -- -- 73
2017-11-27 16:00:00 20.5 12 Oeste 25 Oeste 0 -- -- 73
2017-11-27 15:00:00 20.7 10 Noroeste 23 Oeste 0 -- -- 74
2017-11-27 14:00:00 20.6 12 Oeste 24 Oeste 0 -- -- 75
2017-11-27 13:00:00 20.7 14 Oeste 24 Oeste 0 -- -- 74
2017-11-27 12:00:00 20.6 10 Noroeste 24 Oeste 0.2 -- -- 75
2017-11-27 11:00:00 20.4 10 Noroeste 19 Noroeste 0 -- -- 77
2017-11-27 10:00:00 18.4 9 Noroeste 16 Noroeste 0 -- -- 82
2017-11-27 09:00:00 17.1 6 Noroeste 13 Noroeste 0 -- -- 89
2017-11-27 08:00:00 16.5 5 Noroeste 12 Noroeste 0 -- -- 89
2017-11-27 07:00:00 16.4 6 Norte 10 Noroeste 0 -- -- 90
2017-11-27 06:00:00 16.1 5 Noroeste 15 Noroeste 0 -- -- 89
2017-11-27 05:00:00 16.2 6 Noroeste 14 Noroeste 0 -- -- 90
2017-11-27 04:00:00 16.3 9 Noroeste 19 Noroeste 0 -- -- 92
2017-11-27 03:00:00 16.4 8 Norte 18 Norte 0 -- -- 94
2017-11-27 02:00:00 16.1 10 Noroeste 18 Oeste 0 -- -- 94
2017-11-27 01:00:00 15.9 4 Norte 18 Norte 2 -- -- 91
2017-11-27 00:00:00 16.2 5 Noroeste 14 Noroeste 0 -- -- 90
2017-11-26 23:00:00 16.3 3 Norte 12 Noroeste 0 -- -- 85
2017-11-26 22:00:00 16.2 9 Noroeste 17 Noroeste 0 -- -- 89
2017-11-26 21:00:00 16.4 7 Noroeste 14 Norte 0 -- -- 87
2017-11-26 20:00:00 16.8 8 Noroeste 18 Noroeste 0 -- -- 92
2017-11-26 19:00:00 16.8 9 Noroeste 22 Noroeste 0 -- -- 91
2017-11-26 18:00:00 17.4 11 Noroeste 22 Oeste 0 -- -- 90
2017-11-26 17:00:00 17.8 13 Oeste 28 Oeste 0 -- -- 91
2017-11-26 16:00:00 17.5 15 Oeste 30 Oeste 0 -- -- 91
2017-11-26 15:00:00 17.8 12 Oeste 24 Noroeste 0 -- -- 91
2017-11-26 14:00:00 17.9 14 Oeste 27 Oeste 0 -- -- 93
2017-11-26 13:00:00 18 10 Noroeste 30 Oeste 0 -- -- 92
2017-11-26 12:00:00 17.9 7 Noroeste 23 Oeste 0 -- -- 92
2017-11-26 11:00:00 17.8 7 Noroeste 22 Oeste 0 -- -- 94
2017-11-26 10:00:00 17.4 9 Noroeste 22 Oeste 0 -- -- 97
2017-11-26 09:00:00 16.7 10 Noroeste 27 Oeste 0 -- -- 97
2017-11-26 08:00:00 16.7 15 Oeste 29 Oeste 0.2 -- -- 97
2017-11-26 07:00:00 16.7 9 Noroeste 24 Noroeste 0.2 -- -- 97
2017-11-26 06:00:00 16.5 10 Noroeste 24 Oeste 0 -- -- 96
2017-11-26 05:00:00 16.7 10 Noroeste 26 Noroeste 0 -- -- 96
2017-11-26 04:00:00 16.6 13 Noroeste 26 Oeste 0 -- -- 96
2017-11-26 03:00:00 16.5 9 Noroeste 18 Noroeste 0 -- -- 96
2017-11-26 02:00:00 16.1 6 Noroeste 16 Noroeste 0 -- -- 94
2017-11-26 01:00:00 15.8 6 Noroeste 16 Oeste 0 -- -- 92
2017-11-26 00:00:00 15.5 9 Noroeste 31 Oeste 0 -- -- 90
2017-11-25 23:00:00 15.7 7 Oeste 21 Oeste 0 -- -- 92
2017-11-25 22:00:00 15.3 3 Noroeste 22 Norte 0 -- -- 91
2017-11-25 21:00:00 14.8 5 Norte 15 Sudeste 0 -- -- 91
2017-11-25 20:00:00 13.8 8 Norte 20 Nordeste 1.8 -- -- 93
2017-11-25 19:00:00 14.1 4 Noroeste 23 Noroeste 2 -- -- 89
2017-11-25 18:00:00 14 12 Noroeste 31 Oeste 1 -- -- 90
2017-11-25 17:00:00 14.8 14 Oeste 26 Oeste 0.6 -- -- 85
2017-11-25 16:00:00 15.4 9 Norte 37 Oeste 0.2 -- -- 84
2017-11-25 15:00:00 15.7 11 Noroeste 39 Oeste 0.2 -- -- 83
2017-11-25 14:00:00 15.4 11 Nordeste 33 Oeste 1 -- -- 83
2017-11-25 13:00:00 15.1 9 Oeste 39 Sudoeste 0.6 -- -- 89
2017-11-25 12:00:00 16.8 17 Sudoeste 46 Sur 0.2 -- -- 74
2017-11-25 11:00:00 16.2 7 Norte 25 Noroeste 0.2 -- -- 89
2017-11-25 10:00:00 14.1 9 Este 17 Sur 2.2 -- -- 90
2017-11-25 09:00:00 13.1 6 Nordeste 12 Nordeste 3.4 -- -- 96
2017-11-25 08:00:00 13 11 Noroeste 50 Oeste 30.6 -- -- 95
2017-11-25 07:00:00 16.9 10 Oeste 23 Oeste 0 -- -- 92
2017-11-25 06:00:00 16.9 7 Noroeste 14 Oeste 0 -- -- 91
2017-11-25 05:00:00 15.9 5 Noroeste 18 Oeste 0 -- -- 91
2017-11-25 04:00:00 15.1 5 Este 12 Sudeste 0 -- -- 80
2017-11-25 03:00:00 16 5 Este 10 Este 0 -- -- 87
2017-11-25 02:00:00 17.2 2 Noroeste 18 Noroeste 0 -- -- 87
2017-11-25 01:00:00 17.1 6 Oeste 16 Noroeste 0 -- -- 87
2017-11-25 00:00:00 17.4 7 Noroeste 14 Noroeste 0 -- -- 88
2017-11-24 23:00:00 17.4 9 Noroeste 17 Noroeste 0 -- -- 89
2017-11-24 22:00:00 17.7 6 Oeste 14 Noroeste 0 -- -- 86
2017-11-24 21:00:00 17.6 6 Oeste 16 Oeste 0 -- -- 86
2017-11-24 20:00:00 17.7 6 Noroeste 17 Oeste 0 -- -- 85
2017-11-24 19:00:00 17.7 8 Noroeste 21 Oeste 0 -- -- 82
2017-11-24 18:00:00 18.5 12 Oeste 24 Oeste 0 -- -- 82
2017-11-24 17:00:00 18.6 12 Noroeste 21 Noroeste 0 -- -- 81
2017-11-24 16:00:00 19.3 12 Oeste 18 Oeste 0 -- -- 79
2017-11-24 15:00:00 19.6 8 Noroeste 17 Oeste 0 -- -- 77
2017-11-24 14:00:00 20 7 Oeste 23 Oeste 0 -- -- 72
2017-11-24 13:00:00 20.5 12 Oeste 27 Oeste 0 -- -- 72
2017-11-24 12:00:00 20.2 18 Oeste 28 Oeste 0 -- -- 70
2017-11-24 11:00:00 19 9 Oeste 17 Oeste 0 -- -- 77
2017-11-24 10:00:00 18.2 2 Noroeste 22 Oeste 0 -- -- 80
2017-11-24 09:00:00 16.4 9 Noroeste 16 Noroeste 0 -- -- 84
2017-11-24 08:00:00 15 4 Noroeste 11 Noroeste 0 -- -- 88
2017-11-24 07:00:00 14.2 3 Oeste 6 Este 0 -- -- 86
2017-11-24 06:00:00 13.6 2 Sudeste 9 Nordeste 0 -- -- 86
2017-11-24 05:00:00 12.9 4 Sudoeste 10 Sudoeste 0 -- -- 87
2017-11-24 04:00:00 12.8 3 Este 8 Este 0 -- -- 84
2017-11-24 03:00:00 13.8 0 Calma 10 Noroeste 0 -- -- 84
2017-11-24 02:00:00 13.6 5 Noroeste 8 Noroeste 0 -- -- 85
2017-11-24 01:00:00 13 0 Calma 5 Este 0 -- -- 86
2017-11-24 00:00:00 12.1 4 Este 8 Este 0 -- -- 88
2017-11-23 23:00:00 12 6 Este 8 Este 0 -- -- 89
2017-11-23 22:00:00 12 2 Este 7 Este 0 -- -- 85
2017-11-23 21:00:00 13 2 Sudeste 5 Este 0 -- -- 84
2017-11-23 20:00:00 14.9 3 Este 10 Oeste 0 -- -- 79
2017-11-23 19:00:00 16.1 7 Oeste 12 Oeste 0 -- -- 77
2017-11-23 18:00:00 16.7 3 Oeste 15 Oeste 0 -- -- 75
2017-11-23 17:00:00 18 9 Oeste 16 Oeste 0 -- -- 68
2017-11-23 16:00:00 18.4 10 Oeste 20 Oeste 0 -- -- 64
2017-11-23 15:00:00 18.5 11 Oeste 21 Oeste 0 -- -- 70
2017-11-23 14:00:00 18.7 5 Oeste 19 Oeste 0 -- -- 70
2017-11-23 13:00:00 18.7 7 Noroeste 24 Sudoeste 0 -- -- 72
2017-11-23 12:00:00 18.4 7 Oeste 15 Oeste 0 -- -- 77
2017-11-23 11:00:00 17.2 5 Oeste 15 Noroeste 0 -- -- 83
2017-11-23 10:00:00 16.3 6 Oeste 19 Oeste 0 -- -- 81
2017-11-23 09:00:00 15.8 3 Nordeste 7 Este 0 -- -- 81
2017-11-23 08:00:00 14 3 Este 7 Sudeste 0 -- -- 87
2017-11-23 07:00:00 13.7 0 Calma 6 Este 0 -- -- 88
2017-11-23 06:00:00 13.6 3 Este 9 Sudeste 0 -- -- 88
2017-11-23 05:00:00 12.9 5 Sudeste 9 Este 0 -- -- 89
2017-11-23 04:00:00 12.7 5 Este 9 Este 0 -- -- 90
2017-11-23 03:00:00 11.8 4 Sudeste 8 Este 0 -- -- 91
2017-11-23 02:00:00 12.2 4 Este 9 Este 0 -- -- 88
2017-11-23 01:00:00 13.3 3 Este 8 Sudeste 0 -- -- 85
2017-11-23 00:00:00 13.9 4 Sudeste 9 Sudeste 0 -- -- 86
2017-11-22 23:00:00 12.9 4 Este 8 Este 0 -- -- 87
2017-11-22 22:00:00 12.9 4 Sudeste 9 Este 0 -- -- 85
2017-11-22 21:00:00 14.5 3 Sudeste 6 Este 0 -- -- 84
2017-11-22 20:00:00 16.1 0 Calma 4 Este 0 -- -- 87
2017-11-22 19:00:00 16.8 2 Oeste 15 Oeste 0 -- -- 84
2017-11-22 18:00:00 18 9 Oeste 14 Oeste 0 -- -- 82
2017-11-22 17:00:00 18.7 10 Oeste 16 Oeste 0 -- -- 79
2017-11-22 16:00:00 19.3 9 Oeste 19 Oeste 0 -- -- 78
2017-11-22 15:00:00 19.1 10 Oeste 21 Oeste 0 -- -- 76
2017-11-22 14:00:00 19.6 13 Oeste 24 Oeste 0 -- -- 76
2017-11-22 13:00:00 20.5 9 Oeste 21 Oeste 0 -- -- 68
2017-11-22 12:00:00 19.1 7 Oeste 19 Oeste 0 -- -- 70
2017-11-22 11:00:00 17.7 10 Oeste 18 Sudoeste 0 -- -- 66
2017-11-22 10:00:00 16.7 3 Sudoeste 8 Oeste 0 -- -- 61
2017-11-22 09:00:00 13.9 0 Calma 4 Sudeste 0 -- -- 54
2017-11-22 08:00:00 10.6 2 Sudeste 6 Este 0 -- -- 56
2017-11-22 07:00:00 11.7 0 Calma 6 Este 0 -- -- 51
2017-11-22 06:00:00 12.7 3 Sudeste 10 Este 0 -- -- 56
2017-11-22 05:00:00 12.5 7 Este 14 Este 0 -- -- 60
2017-11-22 04:00:00 14.1 0 Calma 10 Nordeste 0 -- -- 45
2017-11-22 03:00:00 13.1 7 Este 14 Sudeste 0 -- -- 66
2017-11-22 02:00:00 11.9 0 Calma 4 Noroeste 0 -- -- 54
2017-11-22 01:00:00 13.2 3 Norte 14 Oeste 0 -- -- 38
2017-11-22 00:00:00 13.6 3 Este 8 Sur 0 -- -- 37
2017-11-21 23:00:00 14.5 5 Noroeste 17 Norte 0 -- -- 34
2017-11-21 22:00:00 13.6 5 Nordeste 15 Norte 0 -- -- 38
2017-11-21 21:00:00 14.2 3 Sudeste 10 Este 0 -- -- 36
2017-11-21 20:00:00 15 5 Sudeste 11 Sudeste 0 -- -- 41
2017-11-21 19:00:00 15.9 3 Sudeste 8 Nordeste 0 -- -- 40
2017-11-21 18:00:00 17.5 6 Norte 17 Oeste 0 -- -- 37
2017-11-21 17:00:00 18.6 10 Noroeste 18 Oeste 0 -- -- 34
2017-11-21 16:00:00 19.1 8 Noroeste 19 Noroeste 0 -- -- 33
2017-11-21 15:00:00 19.6 10 Noroeste 19 Norte 0 -- -- 34
2017-11-21 14:00:00 19.7 13 Norte 29 Noroeste 0 -- -- 33
2017-11-21 13:00:00 20 12 Norte 27 Oeste 0 -- -- 34
2017-11-21 12:00:00 20.9 7 Nordeste 30 Oeste 0 -- -- 24
2017-11-21 11:00:00 19.2 9 Sudeste 28 Sur 0 -- -- 25
2017-11-21 10:00:00 18.8 9 Nordeste 39 Sur 0 -- -- 26
2017-11-21 09:00:00 18.2 13 Sudoeste 40 Sur 0 -- -- 26
2017-11-21 08:00:00 17.6 9 Sur 35 Sur 0 -- -- 27
2017-11-21 07:00:00 17.4 19 Sur 42 Sudeste 0 -- -- 31
2017-11-21 06:00:00 17.7 20 Sudeste 35 Sudeste 0 -- -- 28
2017-11-21 05:00:00 17.7 15 Sudeste 37 Sudeste 0 -- -- 27
2017-11-21 04:00:00 18 19 Sudeste 43 Sudeste 0 -- -- 26
2017-11-21 03:00:00 18.1 16 Sudeste 38 Sudeste 0 -- -- 25
2017-11-21 02:00:00 17.9 18 Este 32 Nordeste 0 -- -- 25
2017-11-21 01:00:00 17.5 19 Sudeste 36 Este 0 -- -- 25
2017-11-21 00:00:00 17.9 19 Este 40 Sudeste 0 -- -- 27
2017-11-20 23:00:00 18.1 17 Este 37 Este 0 -- -- 25
2017-11-20 22:00:00 16.4 9 Nordeste 27 Nordeste 0 -- -- 26
2017-11-20 21:00:00 17.5 12 Nordeste 30 Norte 0 -- -- 27
2017-11-20 20:00:00 18.1 12 Nordeste 40 Nordeste 0 -- -- 24
2017-11-20 19:00:00 17.9 15 Nordeste 31 Nordeste 0 -- -- 27
2017-11-20 18:00:00 18.2 12 Este 28 Este 0 -- -- 33
2017-11-20 17:00:00 19.4 14 Este 32 Este 0 -- -- 37
2017-11-20 16:00:00 20.4 16 Este 32 Este 0 -- -- 37
2017-11-20 15:00:00 20.7 12 Este 28 Este 0 -- -- 38
2017-11-20 14:00:00 20.3 13 Este 30 Sudeste 0 -- -- 40
2017-11-20 13:00:00 20.1 17 Sudeste 40 Este 0 -- -- 42
2017-11-20 12:00:00 19.4 22 Sudeste 40 Sudeste 0 -- -- 47
2017-11-20 11:00:00 18.4 22 Este 37 Este 0 -- -- 52
2017-11-20 10:00:00 17.3 21 Este 33 Este 0 -- -- 58
2017-11-20 09:00:00 15 14 Este 30 Este 0 -- -- 71
2017-11-20 08:00:00 13.1 3 Este 24 Sudeste 0 -- -- 73
2017-11-20 07:00:00 13.4 11 Sudeste 27 Este 0 -- -- 84
2017-11-20 06:00:00 13.2 12 Este 24 Este 0 -- -- 84
2017-11-20 05:00:00 13.3 10 Este 31 Este 0 -- -- 78
2017-11-20 04:00:00 13.2 20 Sudeste 34 Sudeste 0 -- -- 83
2017-11-20 03:00:00 14.3 23 Este 40 Este 0 -- -- 82
2017-11-20 02:00:00 14.3 16 Sudeste 37 Este 0 -- -- 79
2017-11-20 01:00:00 14.2 18 Este 42 Este 0 -- -- 80
2017-11-20 00:00:00 14.1 19 Este 37 Este 0 -- -- 78
2017-11-19 23:00:00 14.3 21 Este 45 Este 0 -- -- 77
2017-11-19 22:00:00 14.6 20 Este 45 Este 0 -- -- 73
2017-11-19 21:00:00 14.3 26 Este 51 Este 0 -- -- 82
2017-11-19 20:00:00 14.5 25 Este 41 Este 0 -- -- 80
2017-11-19 19:00:00 14.6 19 Este 40 Sudeste 0 -- -- 80
2017-11-19 18:00:00 15 20 Este 53 Este 0 -- -- 79
2017-11-19 17:00:00 16 20 Este 35 Este 0 -- -- 77
2017-11-19 16:00:00 16.5 17 Sudeste 33 Este 0 -- -- 78
2017-11-19 15:00:00 17 13 Este 35 Sudeste 0 -- -- 76
2017-11-19 14:00:00 16.7 15 Este 33 Este 0 -- -- 78
2017-11-19 13:00:00 15.7 17 Este 33 Sudeste 0.6 -- -- 84
2017-11-19 12:00:00 15.3 21 Este 40 Sudeste 1.2 -- -- 88
2017-11-19 11:00:00 14.5 13 Este 37 Sudeste 0.8 -- -- 87
2017-11-19 10:00:00 14.3 19 Este 37 Este 3.6 -- -- 88
2017-11-19 09:00:00 14.1 12 Este 32 Sudeste 0.8 -- -- 87
2017-11-19 08:00:00 14 7 Sudeste 39 Este 0 -- -- 85
2017-11-19 07:00:00 14 8 Sudeste 25 Este 0 -- -- 83
2017-11-19 06:00:00 14.4 13 Este 26 Este 0 -- -- 81
2017-11-19 05:00:00 13.9 8 Este 32 Este 0 -- -- 81
2017-11-19 04:00:00 13.7 16 Este 28 Este 0 -- -- 81
2017-11-19 03:00:00 14 12 Este 26 Este 0 -- -- 86
2017-11-19 02:00:00 13.1 6 Este 16 Este 0 -- -- 89
2017-11-19 01:00:00 12.4 3 Este 13 Este 0 -- -- 88
2017-11-19 00:00:00 12.2 3 Norte 17 Sudeste 0 -- -- 85
2017-11-18 23:00:00 12.3 2 Este 8 Nordeste 0 -- -- 86
2017-11-18 22:00:00 13.8 3 Oeste 28 Este 0 -- -- 80
2017-11-18 21:00:00 14.5 11 Sudeste 23 Sudeste 0 -- -- 81
2017-11-18 20:00:00 14.3 3 Este 17 Sur 0 -- -- 83
2017-11-18 19:00:00 14.7 2 Nordeste 4 Nordeste 0 -- -- 86
2017-11-18 18:00:00 16 3 Sudoeste 10 Oeste 0 -- -- 83
2017-11-18 17:00:00 16.8 6 Oeste 22 Oeste 0 -- -- 81
2017-11-18 16:00:00 17.6 6 Oeste 18 Oeste 0 -- -- 76
2017-11-18 15:00:00 17.5 10 Oeste 22 Oeste 0 -- -- 78
2017-11-18 14:00:00 18.4 10 Oeste 18 Oeste 0 -- -- 73
2017-11-18 13:00:00 18 11 Oeste 21 Oeste 0 -- -- 74
2017-11-18 12:00:00 18.8 10 Oeste 17 Oeste 0 -- -- 69
2017-11-18 11:00:00 18.1 7 Oeste 13 Oeste 0 -- -- 72
2017-11-18 10:00:00 16.4 8 Oeste 14 Oeste 0 -- -- 77
2017-11-18 09:00:00 12.2 3 Este 11 Este 0 -- -- 87
2017-11-18 08:00:00 9.8 4 Sudeste 9 Este 0 -- -- 89
2017-11-18 07:00:00 10 6 Sudeste 9 Sudeste 0 -- -- 92
2017-11-18 06:00:00 9.4 3 Sudeste 8 Este 0 -- -- 91
2017-11-18 05:00:00 9.7 7 Este 12 Este 0 -- -- 89
2017-11-18 04:00:00 9.6 5 Este 8 Este 0 -- -- 89
2017-11-18 03:00:00 9.9 4 Este 10 Este 0 -- -- 85
2017-11-18 02:00:00 10.6 4 Este 8 Este 0 -- -- 84
2017-11-18 01:00:00 10.9 0 Calma 9 Este 0 -- -- 85
2017-11-18 00:00:00 11.2 5 Este 8 Este 0 -- -- 80
2017-11-17 23:00:00 11.8 3 Este 6 Sudeste 0 -- -- 81
2017-11-17 22:00:00 12.3 2 Sudeste 6 Este 0 -- -- 80
2017-11-17 21:00:00 13.3 4 Este 9 Este 0 -- -- 74
2017-11-17 20:00:00 14.9 4 Sur 9 Sudoeste 0 -- -- 72
2017-11-17 19:00:00 15.8 5 Sur 6 Sur 0 -- -- 76
2017-11-17 18:00:00 16.8 4 Este 8 Este 0 -- -- 81
2017-11-17 17:00:00 17.3 0 Calma 9 Este 0 -- -- 86
2017-11-17 16:00:00 17 0 Calma 22 Oeste 0 -- -- 87
2017-11-17 15:00:00 18.8 10 Oeste 24 Oeste 0 -- -- 80
2017-11-17 14:00:00 18.9 5 Sudeste 13 Este 0 -- -- 64
2017-11-17 13:00:00 17.6 4 Oeste 13 Oeste 0 -- -- 83
2017-11-17 12:00:00 18 3 Sudoeste 17 Oeste 0 -- -- 77
2017-11-17 11:00:00 17.4 5 Oeste 27 Oeste 0 -- -- 81
2017-11-17 10:00:00 15 4 Norte 15 Nordeste 0.2 -- -- 88
2017-11-17 09:00:00 14.5 2 Este 9 Nordeste 0 -- -- 88
2017-11-17 08:00:00 13.1 5 Oeste 10 Oeste 0 -- -- 89
2017-11-17 07:00:00 13.1 7 Sudeste 21 Sudoeste 0 -- -- 79
2017-11-17 06:00:00 12.4 5 Sudeste 12 Este 0 -- -- 83
2017-11-17 05:00:00 13.9 4 Noroeste 16 Oeste 0 -- -- 79
2017-11-17 04:00:00 14.1 9 Este 18 Sur 0 -- -- 79
2017-11-17 03:00:00 14.7 7 Este 22 Oeste 0 -- -- 69
2017-11-17 02:00:00 14.4 10 Este 17 Este 0 -- -- 72
2017-11-17 01:00:00 14.2 5 Sudeste 7 Sudeste 0 -- -- 74
2017-11-17 00:00:00 14.4 2 Sudeste 11 Sudoeste 0 -- -- 71